Etusivu
METAR-TAF:

METAR-TAF

Lentoasemat :

Tateyama, Japani

Leveyspiiri: 34-59N, Pituuspiiri: 139-50E, korkeus merenpinnasta: 3 m

Tämänhetkinen sää

Tämä raportti tehtiin 7 tuntia ja 13 minuuttia sitten, kello 05.04 UTC
Tuuli 4 kn pohjoisesta, vaihdellen luoteen ja pohjoisen/koillisen välillä
Lämpötila 18°C
Kosteus 88%
Ilmanpaine 1018 hPa
Näkyvyys 10 km tai enemmän
Muutamia pilviä 800 ft:n korkeudessa
Hajanaisia pilviä 1400 ft:n korkeudessa
Hajonneita pilviä 4000 ft:n korkeudessa

METAR: RJTE 130504Z 01004KT 320V030 9999 FEW008 SCT014 BKN040 18/16 Q1018 RMK 1ST008 4CU014 7SC040 A3007

Aika: 21:17 (12:17 UTC)


TAF: puuttuu

Säähavainnot ja -ennusteet yli 4000 lentoasemalta (METAR- ja TAF-raportit).

Käytössä olevat sääasemat on merkitty karttaan keltaisilla ja punaisilla pisteillä.

Aseta hiiri pisteen päälle nähdäksesi sääaseman nimen.

Klikkaa sitten nähdäksesi säähavainnot ja -ennusteet.

Kartan vaihtaminen: klikkaa mustalla rastilla varustettuja vihreitä pisteitä, niin voit zoomata sisään; viivalla varustettua vihreää pistettä, niin voit zoomata ulos tai vihreitä nuolia, niin pääset viereisille kartoille.


METAR-TAF: